Time;durP1;ratioP1;P1;durP2;ratioP2;P2;SDS_P1;SDS_P2;PMS_P1;PMS_P2;Temp;Humidity;BMP_temperature;BMP_pressure;BME280_temperature;BME280_humidity;BME280_pressure;Samples;Min_cycle;Max_cycle;Signal;HPM_P1;HPM_P2
2022/12/31 00:01:35;;;;;;;26.45;25.23;;;;;;;12.01;100.00;100132.53;10579096;28;20187;-66
2022/12/31 00:06:37;;;;;;;26.45;25.20;;;;;;;12.06;100.00;100141.81;10579004;28;20051;-67
2022/12/31 00:11:39;;;;;;;38.30;36.45;;;;;;;12.10;100.00;100132.00;10579128;28;20058;-66
2022/12/31 00:16:43;;;;;;;83.03;78.60;;;;;;;12.18;100.00;100147.22;10578487;28;20414;-63
2022/12/31 00:21:45;;;;;;;41.15;38.17;;;;;;;12.12;100.00;100134.50;10576064;28;20055;-64
2022/12/31 00:26:47;;;;;;;;;;;;;;;12.14;100.00;100146.56;10578832;28;20055;-65
2022/12/31 00:31:50;;;;;;;31.95;30.27;;;;;;;12.06;100.00;100133.97;10578684;28;19965;-67
2022/12/31 00:36:52;;;;;;;28.73;27.30;;;;;;;11.98;100.00;100120.47;10578469;28;20043;-65
2022/12/31 00:41:54;;;;;;;53.78;50.88;;;;;;;11.98;100.00;100117.88;10577778;28;20056;-66
2022/12/31 00:46:57;;;;;;;31.83;29.83;;;;;;;11.92;100.00;100136.53;10578482;28;20060;-64
2022/12/31 00:51:59;;;;;;;34.58;32.78;;;;;;;11.89;100.00;100132.31;10575324;28;20617;-66
2022/12/31 00:57:01;;;;;;;22.48;21.42;;;;;;;12.00;100.00;100129.06;10577757;28;20044;-67
2022/12/31 01:02:04;;;;;;;22.33;21.33;;;;;;;11.92;100.00;100126.06;10578396;28;20104;-66
2022/12/31 01:07:07;;;;;;;26.38;25.15;;;;;;;11.84;100.00;100124.75;10577358;28;20059;-67
2022/12/31 01:12:09;;;;;;;33.10;31.50;;;;;;;11.76;100.00;100132.19;10577351;28;20483;-67
2022/12/31 01:17:13;;;;;;;38.60;36.10;;;;;;;11.66;100.00;100115.38;10577066;28;20472;-65
2022/12/31 01:22:15;;;;;;;27.75;26.42;;;;;;;11.53;100.00;100116.09;10575091;28;20059;-64
2022/12/31 01:27:17;;;;;;;34.55;32.90;;;;;;;11.46;100.00;100125.19;10577081;28;20384;-64
2022/12/31 01:32:20;;;;;;;24.70;23.55;;;;;;;11.39;100.00;100126.50;10577237;28;20047;-64
2022/12/31 01:37:21;;;;;;;32.80;31.27;;;;;;;11.33;100.00;100138.97;10576665;28;20081;-64
2022/12/31 01:42:23;;;;;;;34.58;32.92;;;;;;;11.27;100.00;100135.88;10576986;28;20052;-64
2022/12/31 01:47:36;;;;;;;29.70;28.30;;;;;;;11.27;100.00;100141.09;10574961;28;20095;-65
2022/12/31 01:52:45;;;;;;;65.13;61.60;;;;;;;11.24;100.00;100163.00;10581148;28;20053;-66
2022/12/31 01:57:51;;;;;;;98.28;91.95;;;;;;;11.29;100.00;100202.75;10584298;28;20066;-65
2022/12/31 02:02:55;;;;;;;68.18;64.05;;;;;;;11.29;100.00;100173.22;10584245;28;20051;-66
2022/12/31 02:07:58;;;;;;;85.95;80.45;;;;;;;11.30;100.00;100152.19;10584505;28;20108;-68
2022/12/31 02:13:01;;;;;;;43.28;41.22;;;;;;;11.28;100.00;100167.13;10583437;28;20066;-66
2022/12/31 02:18:17;;;;;;;45.25;43.15;;;;;;;11.31;100.00;100174.81;10581200;28;20059;-67
2022/12/31 02:24:10;;;;;;;48.42;46.20;;;;;;;11.36;100.00;100189.38;10582847;28;20077;-68
2022/12/31 02:30:09;;;;;;;45.67;43.53;;;;;;;11.39;100.00;100197.03;10582837;28;20453;-68
2022/12/31 02:35:20;;;;;;;44.50;42.42;;;;;;;11.37;100.00;100196.28;10580396;28;20473;-68
2022/12/31 02:40:23;;;;;;;46.33;44.20;;;;;;;11.42;100.00;100215.13;10582613;28;20107;-66
2022/12/31 02:45:34;;;;;;;58.53;55.58;;;;;;;11.39;100.00;100223.16;10582245;28;20058;-66
2022/12/31 02:50:55;;;;;;;58.10;55.33;;;;;;;11.36;100.00;100220.72;10579589;28;20119;-64
2022/12/31 02:56:08;;;;;;;54.00;51.45;;;;;;;11.28;100.00;100206.31;10598202;27;20039;-65
2022/12/31 03:06:37;;;;;;;41.25;39.30;;;;;;;11.24;100.00;100199.59;10624141;27;20051;-66
2022/12/31 03:16:59;;;;;;;53.38;50.80;;;;;;;11.17;100.00;100183.41;10623108;27;19919;-66
2022/12/31 03:27:22;;;;;;;62.03;59.15;;;;;;;11.17;100.00;100172.13;10622966;27;20402;-66
2022/12/31 03:32:25;;;;;;;58.13;55.42;;;;;;;11.12;100.00;100167.13;10622782;27;20066;-66
2022/12/31 03:37:26;;;;;;;51.33;48.90;;;;;;;11.13;100.00;100165.38;10622246;27;20104;-66
2022/12/31 03:42:28;;;;;;;70.55;67.18;;;;;;;11.15;100.00;100142.66;10622427;27;20479;-67
2022/12/31 03:47:31;;;;;;;58.67;55.92;;;;;;;11.13;100.00;100145.34;10619763;27;20406;-66
2022/12/31 03:52:33;;;;;;;57.78;55.13;;;;;;;11.11;100.00;100135.88;10621994;27;20096;-66
2022/12/31 03:57:37;;;;;;;53.75;51.20;;;;;;;11.13;100.00;100128.81;10621673;27;20039;-67
2022/12/31 04:02:40;;;;;;;61.17;58.35;;;;;;;11.18;100.00;100126.78;10621560;27;20482;-66
2022/12/31 04:07:43;;;;;;;66.70;63.47;;;;;;;11.26;100.00;100124.56;10621753;27;20112;-67
2022/12/31 04:12:44;;;;;;;62.65;59.50;;;;;;;11.51;100.00;100122.34;10620444;27;20043;-68
2022/12/31 04:17:48;;;;;;;;;;;;;;;11.77;100.00;100110.34;10619156;27;20055;-65
2022/12/31 04:22:50;;;;;;;56.15;53.30;;;;;;;12.02;100.00;100114.13;10620721;27;19924;-67
2022/12/31 04:27:55;;;;;;;224.18;211.10;;;;;;;12.22;100.00;100120.78;10621128;27;20112;-68
2022/12/31 04:32:58;;;;;;;168.10;158.38;;;;;;;12.45;100.00;100107.22;10620899;27;20113;-67
2022/12/31 04:38:01;;;;;;;201.38;185.32;;;;;;;12.68;100.00;100103.16;10620406;27;20532;-67
2022/12/31 04:43:03;;;;;;;312.95;286.23;;;;;;;12.93;100.00;100117.31;10620625;28;20486;-63
2022/12/31 04:48:06;;;;;;;321.30;294.10;;;;;;;13.11;100.00;100115.28;10617654;28;20047;-65
2022/12/31 04:53:08;;;;;;;321.98;295.35;;;;;;;13.16;100.00;100106.28;10619895;28;20116;-64
2022/12/31 04:58:11;;;;;;;197.77;187.13;;;;;;;13.42;100.00;100127.31;10619689;28;20051;-67
2022/12/31 05:03:14;;;;;;;460.00;401.25;;;;;;;13.51;100.00;100137.22;10619923;28;20039;-65
2022/12/31 05:08:18;;;;;;;225.30;208.07;;;;;;;13.48;100.00;100137.41;10619531;28;20572;-64
2022/12/31 05:13:19;;;;;;;400.15;309.85;;;;;;;13.65;100.00;100131.91;10620049;28;20419;-64
2022/12/31 05:18:23;;;;;;;404.77;358.30;;;;;;;13.70;100.00;100125.50;10617575;28;20043;-65
2022/12/31 05:23:25;;;;;;;321.67;288.75;;;;;;;13.87;100.00;100127.84;10619846;28;20048;-63
2022/12/31 05:28:28;;;;;;;267.88;241.25;;;;;;;13.75;100.00;100140.00;10627222;27;20460;-64
2022/12/31 05:33:31;;;;;;;159.88;149.65;;;;;;;13.67;100.00;100136.19;10628035;27;20046;-65
2022/12/31 05:38:33;;;;;;;93.32;88.75;;;;;;;13.65;100.00;100147.63;10627889;27;20043;-63
2022/12/31 05:43:35;;;;;;;117.68;109.55;;;;;;;13.74;100.00;100137.47;10627378;27;20054;-64
2022/12/31 05:48:38;;;;;;;308.60;280.52;;;;;;;14.00;100.00;100140.13;10624436;27;20051;-64
2022/12/31 05:53:40;;;;;;;335.52;304.88;;;;;;;13.99;100.00;100125.34;10627018;27;20047;-66
2022/12/31 05:58:43;;;;;;;228.55;212.43;;;;;;;14.06;100.00;100116.06;10626347;27;20486;-66
2022/12/31 06:03:46;;;;;;;226.70;211.65;;;;;;;14.11;100.00;100121.88;10626608;27;20055;-67
2022/12/31 06:08:50;;;;;;;165.95;155.52;;;;;;;14.26;100.00;100121.72;10626568;27;20446;-65
2022/12/31 06:13:52;;;;;;;252.32;228.93;;;;;;;14.57;100.00;100127.44;10625980;27;20054;-66
2022/12/31 06:18:55;;;;;;;110.60;104.60;;;;;;;14.59;100.00;100138.69;10623193;27;20055;-64
2022/12/31 06:23:57;;;;;;;256.02;235.35;;;;;;;14.70;100.00;100123.94;10625771;27;20066;-66
2022/12/31 06:28:59;;;;;;;94.38;88.93;;;;;;;15.06;100.00;100130.16;10625664;27;20055;-67
2022/12/31 06:34:02;;;;;;;;;;;;;;;14.99;100.00;100142.88;10626040;27;20114;-66
2022/12/31 06:39:04;;;;;;;71.07;67.40;;;;;;;15.02;100.00;100126.09;10624389;27;19987;-66
2022/12/31 06:44:06;;;;;;;176.80;162.80;;;;;;;15.14;100.00;100138.31;10624680;27;20419;-68
2022/12/31 06:49:09;;;;;;;;;;;;;;;15.06;100.00;100140.69;10622458;27;20123;-64
2022/12/31 06:54:10;;;;;;;48.22;45.78;;;;;;;15.10;100.00;100128.16;10624744;27;19972;-65
2022/12/31 06:59:24;;;;;;;;;;;;;;;15.05;100.00;100134.56;10624883;27;20055;-66
2022/12/31 07:05:27;;;;;;;225.45;204.63;;;;;;;15.10;100.00;100138.66;10624262;27;20002;-65
2022/12/31 07:10:45;;;;;;;179.68;166.10;;;;;;;15.06;100.00;100145.94;10570665;27;20103;-67
2022/12/31 07:16:07;;;;;;;453.75;268.88;;;;;;;15.10;100.00;100155.28;10623990;27;20051;-67
2022/12/31 07:21:16;;;;;;;452.92;365.05;;;;;;;15.11;100.00;100153.47;10619703;27;20063;-65
2022/12/31 07:26:35;;;;;;;68.05;63.90;;;;;;;15.06;100.00;100145.94;10622214;27;20051;-66
2022/12/31 07:31:59;;;;;;;105.03;98.18;;;;;;;15.05;100.00;100165.25;10621795;27;20092;-66
2022/12/31 07:37:13;;;;;;;252.77;228.73;;;;;;;14.95;100.00;100149.31;10621254;27;20046;-67
2022/12/31 07:42:24;;;;;;;200.40;183.35;;;;;;;14.88;100.00;100162.06;10621772;27;20105;-67
2022/12/31 07:47:29;;;;;;;214.47;164.57;;;;;;;14.99;100.00;100155.22;10621165;27;20146;-66
2022/12/31 07:52:33;;;;;;;261.55;224.68;;;;;;;14.63;100.00;100173.44;10621038;27;20051;-68
2022/12/31 07:57:46;;;;;;;255.40;226.65;;;;;;;14.58;100.00;100173.78;10621691;27;20051;-67
2022/12/31 08:03:08;;;;;;;48.15;45.35;;;;;;;14.53;100.00;100170.63;10585134;27;20051;-65
2022/12/31 08:08:33;;;;;;;168.20;155.82;;;;;;;14.68;100.00;100194.97;10580091;28;20044;-66
2022/12/31 08:13:35;;;;;;;266.55;242.35;;;;;;;14.34;100.00;100213.06;10578804;28;20047;-63
2022/12/31 08:18:38;;;;;;;296.25;262.30;;;;;;;13.95;100.00;100240.09;10575957;28;20096;-66
2022/12/31 08:23:56;;;;;;;72.03;68.40;;;;;;;14.10;100.00;100253.16;10579418;28;20044;-64
2022/12/31 08:29:21;;;;;;;125.07;118.25;;;;;;;14.29;100.00;100250.97;10578385;28;20131;-66
2022/12/31 08:34:36;;;;;;;204.82;185.05;;;;;;;14.46;100.00;100274.38;10578777;28;20107;-66
2022/12/31 08:39:58;;;;;;;202.10;185.75;;;;;;;14.57;100.00;100279.72;10580184;28;20471;-68
2022/12/31 08:45:14;;;;;;;158.00;144.75;;;;;;;14.56;100.00;100275.44;10580098;28;20066;-65
2022/12/31 08:50:19;;;;;;;76.28;72.00;;;;;;;14.55;100.00;100307.91;10577458;28;20108;-66
2022/12/31 08:55:24;;;;;;;104.65;96.30;;;;;;;14.73;100.00;100318.91;10578577;28;20449;-67
2022/12/31 09:00:28;;;;;;;336.95;226.90;;;;;;;14.48;100.00;100336.34;10581842;28;20054;-65
2022/12/31 09:05:39;;;;;;;182.90;169.60;;;;;;;14.19;100.00;100361.91;10587858;28;20044;-66
2022/12/31 09:10:58;;;;;;;85.20;80.78;;;;;;;13.94;100.00;100373.97;10587847;28;20477;-66
2022/12/31 09:16:15;;;;;;;68.40;64.95;;;;;;;13.78;100.00;100385.44;10587171;28;20552;-65
2022/12/31 09:21:18;;;;;;;338.17;303.85;;;;;;;13.82;100.00;100401.84;10584420;28;20487;-66
2022/12/31 09:26:40;;;;;;;123.82;114.45;;;;;;;13.79;100.00;100415.97;10586898;28;20055;-66
2022/12/31 09:31:56;;;;;;;67.88;64.07;;;;;;;13.57;100.00;100434.81;10585854;28;20094;-64
2022/12/31 09:37:06;;;;;;;68.28;64.40;;;;;;;13.68;100.00;100426.31;10601019;27;20055;-64
2022/12/31 09:42:54;;;;;;;44.03;41.63;;;;;;;13.82;100.00;100433.31;10628977;27;20069;-67
2022/12/31 09:48:54;;;;;;;71.60;67.95;;;;;;;14.09;100.00;100438.56;10625905;27;20866;-66
2022/12/31 09:54:39;;;;;;;188.20;174.27;;;;;;;14.29;100.00;100425.94;10585916;28;20056;-67
2022/12/31 09:59:53;;;;;;;72.88;69.05;;;;;;;14.41;100.00;100408.56;10582572;28;20096;-67
2022/12/31 10:05:21;;;;;;;121.80;114.07;;;;;;;14.55;100.00;100423.41;10585488;28;20055;-67
2022/12/31 10:10:34;;;;;;;115.93;108.82;;;;;;;14.67;100.00;100417.34;10583744;28;20094;-65
2022/12/31 10:16:05;;;;;;;317.50;285.08;;;;;;;14.66;100.00;100428.81;10584373;28;20093;-66
2022/12/31 10:21:33;;;;;;;192.35;172.15;;;;;;;14.52;100.00;100416.59;10582120;28;20105;-65
2022/12/31 10:26:58;;;;;;;58.20;54.90;;;;;;;14.61;100.00;100419.53;10583035;28;20044;-65
2022/12/31 10:32:17;;;;;;;132.73;125.05;;;;;;;14.63;100.00;100397.50;10589223;27;20088;-66
2022/12/31 10:37:27;;;;;;;70.78;67.05;;;;;;;14.72;100.00;100393.41;10622917;27;20265;-64
2022/12/31 10:43:18;;;;;;;96.07;89.45;;;;;;;14.88;100.00;100398.47;10626214;27;20053;-64
2022/12/31 10:49:28;;;;;;;170.70;158.55;;;;;;;15.13;100.00;100383.69;10579101;28;20103;-66
2022/12/31 10:55:43;;;;;;;41.45;39.15;;;;;;;15.13;100.00;100417.84;10581081;28;20089;-65
2022/12/31 11:01:01;;;;;;;102.97;96.85;;;;;;;15.21;100.00;100396.28;10569590;27;20104;-67
2022/12/31 11:07:09;;;;;;;170.98;154.95;;;;;;;15.21;100.00;100411.19;10626213;27;20043;-64
2022/12/31 11:12:54;;;;;;;118.78;110.93;;;;;;;15.29;100.00;100390.47;10624925;27;20393;-67
2022/12/31 11:18:12;;;;;;;119.47;109.22;;;;;;;15.35;100.00;100416.34;10582396;27;20100;-66
2022/12/31 11:23:31;;;;;;;138.15;128.52;;;;;;;15.42;100.00;100414.97;10623304;27;20047;-64
2022/12/31 11:28:54;;;;;;;159.48;147.77;;;;;;;15.43;100.00;100403.50;10624943;27;20039;-67
2022/12/31 11:34:23;;;;;;;49.22;46.35;;;;;;;15.38;100.00;100423.19;10622374;27;20055;-65
2022/12/31 11:39:47;;;;;;;51.67;48.60;;;;;;;15.45;100.00;100414.78;10623029;27;20043;-67
2022/12/31 11:44:59;;;;;;;70.15;65.72;;;;;;;15.44;100.00;100417.50;10622085;27;20416;-65
2022/12/31 11:50:27;;;;;;;224.25;206.68;;;;;;;15.26;100.00;100420.44;10620387;27;20344;-65
2022/12/31 11:55:53;;;;;;;66.13;62.22;;;;;;;14.96;100.00;100413.75;10623904;27;20074;-66
2022/12/31 12:01:01;;;;;;;103.90;96.38;;;;;;;15.13;100.00;100425.72;10621959;27;20104;-66
2022/12/31 12:06:04;;;;;;;177.48;157.82;;;;;;;15.24;100.00;100418.88;10608910;27;20051;-64
2022/12/31 12:11:18;;;;;;;388.17;338.92;;;;;;;15.18;100.00;100418.38;10618724;27;20065;-66
2022/12/31 12:16:24;;;;;;;102.10;96.00;;;;;;;15.02;100.00;100431.69;10615296;27;20047;-66
2022/12/31 12:21:28;;;;;;;288.55;260.30;;;;;;;14.93;100.00;100427.94;10592355;27;20085;-66
2022/12/31 12:26:37;;;;;;;84.47;79.85;;;;;;;14.78;100.00;100431.59;10620887;27;20039;-65
2022/12/31 12:31:39;;;;;;;205.25;165.90;;;;;;;14.89;100.00;100430.84;10622703;27;20534;-67
2022/12/31 14:10:59;;;;;;;611.92;563.13;;;;;;;17.60;100.00;100360.38;10443421;27;20134;-72
